LPMA

Details ICAO LPMA (FNC)
Name Madeira/Funchal - Cristiano Ronaldo
Region Portugal
Timezone Atlantic/Madeira (UTC+1.0)
Plans Departing 3683
Arriving 5974
Stats Elevation 189 ft / 58 m (AMSL)
Location 32.697900° -16.774400°
Runways 1
Magnetic Variation 4.563° W
Sunrise 2021-05-12 06:11:50 UTC / 2021-05-12 07:11:50 Local
Sunset 2021-05-12 19:57:45 UTC / 2021-05-12 20:57:45 Local
Advertisement - Login to hide

Runways

ID Width Length Bearing (true/mag) Surface Threshold Overrun Markings Lighting
05 148 ft / 45 m 9,133 ft / 2,784 m 44.60° / 49.16° ASPHALT 482 ft / 147 m 0 ft / 0 m PREC-APP CENTERLINE EDGE THRESHOLD TDZ REIL-OMNI
23 148 ft / 45 m 9,133 ft / 2,784 m 224.61° / 229.17° ASPHALT 482 ft / 147 m 0 ft / 0 m PREC-APP CENTERLINE EDGE THRESHOLD TDZ REIL-OMNI

Map

Weather


0- 5 10 15 20 25 30 35+ Temperature / °C

Clouds and Precipitation
Forecast for 2021-03-22 12:00 UTC. Updated 2 months ago

Ground ~20,000 ft ~40,000 ft Winds

METAR

LPMA 121730Z 17005KT 110V220 9999 FEW015 20/14 Q1025

TAF

TAF AMD TAF AMD LPMA 121635Z 1216/1312 20010KT 9999 SCT015 BECMG 1217/1219 02013KT TEMPO 1219/1312 SCT015 BKN030 PROB40 TEMPO 1219/1309 VRB05KT

Frequencies

Approach 119.20 MHz
Tower 118.35 MHz
Recorded 124.40 MHz ATIS
Approach 119.60 MHz
Warning: Do not use this data for real-world aviation or navigation. No guarantee of current accuracy is given.